sensor_id;sensor_type;location;lat;lon;timestamp;P1;durP1;ratioP1;P2;durP2;ratioP2
55758;SDS011;41678;52.126;20.664;2023-04-26T00:05:35;10.63;;;3.10;;
55758;SDS011;41678;52.126;20.664;2023-04-26T00:10:56;13.75;;;3.17;;
55758;SDS011;41678;52.126;20.664;2023-04-26T00:16:16;14.77;;;3.67;;
55758;SDS011;41678;52.126;20.664;2023-04-26T00:21:36;9.63;;;2.97;;
55758;SDS011;41678;52.126;20.664;2023-04-26T00:26:57;15.95;;;3.78;;
55758;SDS011;41678;52.126;20.664;2023-04-26T00:32:17;12.32;;;4.18;;
55758;SDS011;41678;52.126;20.664;2023-04-26T00:37:39;15.95;;;3.65;;
55758;SDS011;41678;52.126;20.664;2023-04-26T00:42:59;11.07;;;4.03;;
55758;SDS011;41678;52.126;20.664;2023-04-26T00:48:19;16.75;;;3.65;;
55758;SDS011;41678;52.126;20.664;2023-04-26T00:53:39;11.18;;;3.63;;
55758;SDS011;41678;52.126;20.664;2023-04-26T00:58:59;12.88;;;4.20;;
55758;SDS011;41678;52.126;20.664;2023-04-26T01:04:19;18.55;;;4.15;;
55758;SDS011;41678;52.126;20.664;2023-04-26T01:09:44;17.50;;;4.22;;
55758;SDS011;41678;52.126;20.664;2023-04-26T01:15:04;15.57;;;3.97;;
55758;SDS011;41678;52.126;20.664;2023-04-26T01:20:24;11.52;;;4.13;;
55758;SDS011;41678;52.126;20.664;2023-04-26T01:25:44;14.10;;;4.05;;
55758;SDS011;41678;52.126;20.664;2023-04-26T01:31:04;10.77;;;3.28;;
55758;SDS011;41678;52.126;20.664;2023-04-26T01:36:23;15.23;;;4.57;;
55758;SDS011;41678;52.126;20.664;2023-04-26T01:41:44;15.00;;;4.25;;
55758;SDS011;41678;52.126;20.664;2023-04-26T01:47:03;14.82;;;4.15;;
55758;SDS011;41678;52.126;20.664;2023-04-26T01:52:23;13.13;;;4.60;;
55758;SDS011;41678;52.126;20.664;2023-04-26T01:57:44;24.38;;;5.28;;
55758;SDS011;41678;52.126;20.664;2023-04-26T02:03:04;16.50;;;4.00;;
55758;SDS011;41678;52.126;20.664;2023-04-26T02:08:23;13.25;;;4.35;;
55758;SDS011;41678;52.126;20.664;2023-04-26T02:13:43;9.57;;;3.55;;
55758;SDS011;41678;52.126;20.664;2023-04-26T02:19:03;11.05;;;3.90;;
55758;SDS011;41678;52.126;20.664;2023-04-26T02:24:24;14.55;;;4.18;;
55758;SDS011;41678;52.126;20.664;2023-04-26T02:29:44;21.52;;;4.80;;
55758;SDS011;41678;52.126;20.664;2023-04-26T02:35:05;13.75;;;3.95;;
55758;SDS011;41678;52.126;20.664;2023-04-26T02:40:25;8.05;;;3.47;;
55758;SDS011;41678;52.126;20.664;2023-04-26T02:45:44;18.48;;;5.03;;
55758;SDS011;41678;52.126;20.664;2023-04-26T02:51:06;16.73;;;4.13;;
55758;SDS011;41678;52.126;20.664;2023-04-26T02:56:26;20.17;;;4.03;;
55758;SDS011;41678;52.126;20.664;2023-04-26T03:01:47;15.32;;;3.85;;
55758;SDS011;41678;52.126;20.664;2023-04-26T03:07:08;15.65;;;4.68;;
55758;SDS011;41678;52.126;20.664;2023-04-26T03:12:28;14.60;;;4.43;;
55758;SDS011;41678;52.126;20.664;2023-04-26T03:17:47;10.38;;;3.97;;
55758;SDS011;41678;52.126;20.664;2023-04-26T03:23:07;10.48;;;4.07;;
55758;SDS011;41678;52.126;20.664;2023-04-26T03:28:27;11.15;;;4.13;;
55758;SDS011;41678;52.126;20.664;2023-04-26T03:33:46;9.00;;;3.40;;
55758;SDS011;41678;52.126;20.664;2023-04-26T03:39:06;13.20;;;4.45;;
55758;SDS011;41678;52.126;20.664;2023-04-26T03:44:27;13.35;;;4.90;;
55758;SDS011;41678;52.126;20.664;2023-04-26T03:49:46;14.43;;;3.92;;
55758;SDS011;41678;52.126;20.664;2023-04-26T03:55:07;15.85;;;4.43;;
55758;SDS011;41678;52.126;20.664;2023-04-26T04:00:28;8.57;;;3.47;;
55758;SDS011;41678;52.126;20.664;2023-04-26T04:05:48;18.33;;;3.92;;
55758;SDS011;41678;52.126;20.664;2023-04-26T04:11:08;14.98;;;4.22;;
55758;SDS011;41678;52.126;20.664;2023-04-26T04:16:29;10.07;;;3.88;;
55758;SDS011;41678;52.126;20.664;2023-04-26T04:21:50;15.43;;;3.80;;
55758;SDS011;41678;52.126;20.664;2023-04-26T04:27:11;13.23;;;4.43;;
55758;SDS011;41678;52.126;20.664;2023-04-26T04:32:32;14.63;;;4.22;;
55758;SDS011;41678;52.126;20.664;2023-04-26T04:37:52;12.52;;;3.60;;
55758;SDS011;41678;52.126;20.664;2023-04-26T04:43:15;15.55;;;4.15;;
55758;SDS011;41678;52.126;20.664;2023-04-26T04:48:36;11.75;;;3.65;;
55758;SDS011;41678;52.126;20.664;2023-04-26T04:53:57;16.75;;;4.40;;
55758;SDS011;41678;52.126;20.664;2023-04-26T04:59:16;7.80;;;3.50;;
55758;SDS011;41678;52.126;20.664;2023-04-26T05:04:36;12.35;;;3.58;;
55758;SDS011;41678;52.126;20.664;2023-04-26T05:09:56;9.43;;;3.85;;
55758;SDS011;41678;52.126;20.664;2023-04-26T05:15:16;7.85;;;2.85;;
55758;SDS011;41678;52.126;20.664;2023-04-26T05:20:37;13.13;;;4.50;;
55758;SDS011;41678;52.126;20.664;2023-04-26T05:26:00;14.88;;;3.97;;
55758;SDS011;41678;52.126;20.664;2023-04-26T05:31:46;11.32;;;3.15;;
55758;SDS011;41678;52.126;20.664;2023-04-26T05:37:24;14.23;;;3.22;;
55758;SDS011;41678;52.126;20.664;2023-04-26T05:42:44;14.68;;;3.15;;
55758;SDS011;41678;52.126;20.664;2023-04-26T05:48:04;16.58;;;3.50;;
55758;SDS011;41678;52.126;20.664;2023-04-26T05:53:23;12.93;;;4.20;;
55758;SDS011;41678;52.126;20.664;2023-04-26T05:58:44;24.67;;;5.63;;
55758;SDS011;41678;52.126;20.664;2023-04-26T06:11:37;20.48;;;4.50;;
55758;SDS011;41678;52.126;20.664;2023-04-26T06:16:57;14.55;;;3.33;;
55758;SDS011;41678;52.126;20.664;2023-04-26T06:22:16;15.88;;;3.33;;
55758;SDS011;41678;52.126;20.664;2023-04-26T06:27:36;12.80;;;4.22;;
55758;SDS011;41678;52.126;20.664;2023-04-26T06:32:57;9.95;;;3.20;;
55758;SDS011;41678;52.126;20.664;2023-04-26T06:38:18;4.07;;;1.40;;
55758;SDS011;41678;52.126;20.664;2023-04-26T06:43:38;6.95;;;2.83;;
55758;SDS011;41678;52.126;20.664;2023-04-26T06:49:00;15.57;;;3.10;;
55758;SDS011;41678;52.126;20.664;2023-04-26T06:54:20;26.50;;;2.70;;
55758;SDS011;41678;52.126;20.664;2023-04-26T06:59:39;17.48;;;2.75;;
55758;SDS011;41678;52.126;20.664;2023-04-26T07:04:58;13.32;;;2.83;;
55758;SDS011;41678;52.126;20.664;2023-04-26T07:10:18;8.25;;;2.75;;
55758;SDS011;41678;52.126;20.664;2023-04-26T07:15:38;19.92;;;3.67;;
55758;SDS011;41678;52.126;20.664;2023-04-26T07:20:58;11.60;;;2.83;;
55758;SDS011;41678;52.126;20.664;2023-04-26T07:26:17;11.18;;;2.22;;
55758;SDS011;41678;52.126;20.664;2023-04-26T07:31:37;8.88;;;2.30;;
55758;SDS011;41678;52.126;20.664;2023-04-26T07:36:56;6.38;;;1.55;;
55758;SDS011;41678;52.126;20.664;2023-04-26T07:42:16;8.88;;;2.30;;
55758;SDS011;41678;52.126;20.664;2023-04-26T07:47:35;10.38;;;2.80;;
55758;SDS011;41678;52.126;20.664;2023-04-26T07:52:55;13.38;;;2.72;;
55758;SDS011;41678;52.126;20.664;2023-04-26T07:58:14;6.07;;;1.90;;
55758;SDS011;41678;52.126;20.664;2023-04-26T08:03:34;4.75;;;1.58;;
55758;SDS011;41678;52.126;20.664;2023-04-26T08:08:53;5.25;;;1.10;;
55758;SDS011;41678;52.126;20.664;2023-04-26T08:14:13;10.82;;;2.15;;
55758;SDS011;41678;52.126;20.664;2023-04-26T08:19:32;13.70;;;2.58;;
55758;SDS011;41678;52.126;20.664;2023-04-26T08:24:53;8.15;;;1.92;;
55758;SDS011;41678;52.126;20.664;2023-04-26T08:30:14;12.63;;;2.22;;
55758;SDS011;41678;52.126;20.664;2023-04-26T08:35:34;2.30;;;0.82;;
55758;SDS011;41678;52.126;20.664;2023-04-26T08:40:54;8.32;;;1.52;;
55758;SDS011;41678;52.126;20.664;2023-04-26T08:46:18;6.63;;;1.80;;
55758;SDS011;41678;52.126;20.664;2023-04-26T08:51:38;12.68;;;1.92;;
55758;SDS011;41678;52.126;20.664;2023-04-26T08:56:58;6.68;;;1.70;;
55758;SDS011;41678;52.126;20.664;2023-04-26T09:02:19;13.57;;;1.42;;
55758;SDS011;41678;52.126;20.664;2023-04-26T09:07:41;10.88;;;1.65;;
55758;SDS011;41678;52.126;20.664;2023-04-26T09:13:02;11.38;;;1.70;;
55758;SDS011;41678;52.126;20.664;2023-04-26T09:18:22;4.72;;;1.27;;
55758;SDS011;41678;52.126;20.664;2023-04-26T09:23:55;6.30;;;1.48;;
55758;SDS011;41678;52.126;20.664;2023-04-26T09:29:22;6.90;;;1.35;;
55758;SDS011;41678;52.126;20.664;2023-04-26T09:34:44;6.00;;;1.67;;
55758;SDS011;41678;52.126;20.664;2023-04-26T09:40:08;12.27;;;1.35;;
55758;SDS011;41678;52.126;20.664;2023-04-26T09:45:48;13.07;;;2.13;;
55758;SDS011;41678;52.126;20.664;2023-04-26T09:51:10;9.30;;;1.35;;
55758;SDS011;41678;52.126;20.664;2023-04-26T09:56:32;7.03;;;1.00;;
55758;SDS011;41678;52.126;20.664;2023-04-26T10:01:52;4.85;;;1.17;;
55758;SDS011;41678;52.126;20.664;2023-04-26T10:07:12;11.52;;;1.25;;
55758;SDS011;41678;52.126;20.664;2023-04-26T10:12:33;6.32;;;1.58;;
55758;SDS011;41678;52.126;20.664;2023-04-26T10:17:52;9.13;;;1.75;;
55758;SDS011;41678;52.126;20.664;2023-04-26T10:23:21;11.25;;;1.48;;
55758;SDS011;41678;52.126;20.664;2023-04-26T10:34:18;5.88;;;1.77;;
55758;SDS011;41678;52.126;20.664;2023-04-26T10:39:42;5.57;;;1.77;;
55758;SDS011;41678;52.126;20.664;2023-04-26T11:01:42;6.43;;;1.55;;
55758;SDS011;41678;52.126;20.664;2023-04-26T11:07:02;9.48;;;1.35;;
55758;SDS011;41678;52.126;20.664;2023-04-26T11:12:23;10.30;;;1.85;;
55758;SDS011;41678;52.126;20.664;2023-04-26T11:17:43;12.20;;;2.22;;
55758;SDS011;41678;52.126;20.664;2023-04-26T11:23:02;6.70;;;1.63;;
55758;SDS011;41678;52.126;20.664;2023-04-26T11:28:26;5.45;;;0.93;;
55758;SDS011;41678;52.126;20.664;2023-04-26T11:33:45;10.48;;;1.65;;
55758;SDS011;41678;52.126;20.664;2023-04-26T11:39:05;4.13;;;1.35;;
55758;SDS011;41678;52.126;20.664;2023-04-26T11:44:25;5.78;;;1.23;;
55758;SDS011;41678;52.126;20.664;2023-04-26T11:49:44;7.40;;;1.55;;
55758;SDS011;41678;52.126;20.664;2023-04-26T11:55:05;3.70;;;1.02;;
55758;SDS011;41678;52.126;20.664;2023-04-26T12:00:25;11.23;;;1.92;;
55758;SDS011;41678;52.126;20.664;2023-04-26T12:05:52;7.93;;;1.70;;
55758;SDS011;41678;52.126;20.664;2023-04-26T12:11:13;6.35;;;1.83;;
55758;SDS011;41678;52.126;20.664;2023-04-26T12:21:55;6.45;;;2.10;;
55758;SDS011;41678;52.126;20.664;2023-04-26T12:27:21;4.35;;;1.58;;
55758;SDS011;41678;52.126;20.664;2023-04-26T12:32:41;8.38;;;2.03;;
55758;SDS011;41678;52.126;20.664;2023-04-26T12:38:00;6.97;;;2.10;;
55758;SDS011;41678;52.126;20.664;2023-04-26T12:43:20;44.50;;;6.57;;
55758;SDS011;41678;52.126;20.664;2023-04-26T12:48:42;4.43;;;1.27;;
55758;SDS011;41678;52.126;20.664;2023-04-26T12:54:02;7.93;;;2.10;;
55758;SDS011;41678;52.126;20.664;2023-04-26T13:05:24;7.63;;;1.92;;
55758;SDS011;41678;52.126;20.664;2023-04-26T13:10:44;12.98;;;1.70;;
55758;SDS011;41678;52.126;20.664;2023-04-26T13:16:03;5.47;;;1.42;;
55758;SDS011;41678;52.126;20.664;2023-04-26T13:21:24;3.15;;;1.27;;
55758;SDS011;41678;52.126;20.664;2023-04-26T13:26:44;5.60;;;1.30;;
55758;SDS011;41678;52.126;20.664;2023-04-26T13:32:04;5.78;;;1.55;;
55758;SDS011;41678;52.126;20.664;2023-04-26T13:37:24;5.38;;;1.25;;
55758;SDS011;41678;52.126;20.664;2023-04-26T13:42:45;8.68;;;1.50;;
55758;SDS011;41678;52.126;20.664;2023-04-26T13:48:04;2.90;;;1.00;;
55758;SDS011;41678;52.126;20.664;2023-04-26T13:53:24;9.38;;;1.55;;
55758;SDS011;41678;52.126;20.664;2023-04-26T13:58:44;8.32;;;1.60;;
55758;SDS011;41678;52.126;20.664;2023-04-26T14:04:04;11.85;;;1.90;;
55758;SDS011;41678;52.126;20.664;2023-04-26T14:09:24;7.03;;;1.58;;
55758;SDS011;41678;52.126;20.664;2023-04-26T14:14:44;7.82;;;1.30;;
55758;SDS011;41678;52.126;20.664;2023-04-26T14:20:05;9.70;;;1.58;;
55758;SDS011;41678;52.126;20.664;2023-04-26T14:25:26;5.97;;;1.73;;
55758;SDS011;41678;52.126;20.664;2023-04-26T14:30:45;5.68;;;1.50;;
55758;SDS011;41678;52.126;20.664;2023-04-26T14:36:05;5.63;;;1.83;;
55758;SDS011;41678;52.126;20.664;2023-04-26T14:41:26;12.90;;;1.80;;
55758;SDS011;41678;52.126;20.664;2023-04-26T14:46:46;5.80;;;1.65;;
55758;SDS011;41678;52.126;20.664;2023-04-26T14:52:05;9.10;;;1.85;;
55758;SDS011;41678;52.126;20.664;2023-04-26T14:57:25;11.77;;;2.28;;
55758;SDS011;41678;52.126;20.664;2023-04-26T15:02:45;7.70;;;2.13;;
55758;SDS011;41678;52.126;20.664;2023-04-26T15:08:04;5.57;;;1.75;;
55758;SDS011;41678;52.126;20.664;2023-04-26T15:13:24;6.90;;;2.17;;
55758;SDS011;41678;52.126;20.664;2023-04-26T15:18:44;7.70;;;1.50;;
55758;SDS011;41678;52.126;20.664;2023-04-26T15:24:04;9.95;;;2.70;;
55758;SDS011;41678;52.126;20.664;2023-04-26T15:29:25;7.18;;;1.67;;
55758;SDS011;41678;52.126;20.664;2023-04-26T15:34:46;8.18;;;1.83;;
55758;SDS011;41678;52.126;20.664;2023-04-26T15:40:09;11.40;;;2.22;;
55758;SDS011;41678;52.126;20.664;2023-04-26T15:45:30;13.25;;;3.42;;
55758;SDS011;41678;52.126;20.664;2023-04-26T15:50:49;9.07;;;2.53;;
55758;SDS011;41678;52.126;20.664;2023-04-26T15:56:12;14.20;;;3.55;;
55758;SDS011;41678;52.126;20.664;2023-04-26T16:01:33;12.43;;;2.28;;
55758;SDS011;41678;52.126;20.664;2023-04-26T16:06:58;6.68;;;2.55;;
55758;SDS011;41678;52.126;20.664;2023-04-26T16:12:17;11.05;;;2.90;;
55758;SDS011;41678;52.126;20.664;2023-04-26T16:24:13;10.73;;;2.33;;
55758;SDS011;41678;52.126;20.664;2023-04-26T16:29:33;9.88;;;1.50;;
55758;SDS011;41678;52.126;20.664;2023-04-26T16:35:05;5.05;;;1.55;;
55758;SDS011;41678;52.126;20.664;2023-04-26T16:40:26;8.15;;;2.13;;
55758;SDS011;41678;52.126;20.664;2023-04-26T16:45:46;12.82;;;2.97;;
55758;SDS011;41678;52.126;20.664;2023-04-26T16:51:06;14.02;;;3.92;;
55758;SDS011;41678;52.126;20.664;2023-04-26T16:56:25;10.95;;;2.67;;
55758;SDS011;41678;52.126;20.664;2023-04-26T17:01:45;7.43;;;2.70;;
55758;SDS011;41678;52.126;20.664;2023-04-26T17:07:05;13.77;;;2.90;;
55758;SDS011;41678;52.126;20.664;2023-04-26T17:12:25;11.98;;;2.05;;
55758;SDS011;41678;52.126;20.664;2023-04-26T17:17:45;11.18;;;1.98;;
55758;SDS011;41678;52.126;20.664;2023-04-26T17:23:05;8.73;;;1.40;;
55758;SDS011;41678;52.126;20.664;2023-04-26T17:43:01;12.55;;;1.73;;
55758;SDS011;41678;52.126;20.664;2023-04-26T17:48:21;13.75;;;2.20;;
55758;SDS011;41678;52.126;20.664;2023-04-26T17:53:40;9.80;;;2.17;;
55758;SDS011;41678;52.126;20.664;2023-04-26T18:34:42;22.53;;;5.70;;
55758;SDS011;41678;52.126;20.664;2023-04-26T18:40:02;31.95;;;8.55;;
55758;SDS011;41678;52.126;20.664;2023-04-26T18:45:23;34.77;;;6.43;;
55758;SDS011;41678;52.126;20.664;2023-04-26T18:50:50;18.80;;;4.40;;
55758;SDS011;41678;52.126;20.664;2023-04-26T18:56:11;14.38;;;5.38;;
55758;SDS011;41678;52.126;20.664;2023-04-26T19:01:30;18.63;;;4.78;;
55758;SDS011;41678;52.126;20.664;2023-04-26T19:06:50;11.25;;;4.05;;
55758;SDS011;41678;52.126;20.664;2023-04-26T19:12:09;12.38;;;4.00;;
55758;SDS011;41678;52.126;20.664;2023-04-26T19:17:28;15.20;;;4.22;;
55758;SDS011;41678;52.126;20.664;2023-04-26T19:22:51;11.88;;;4.10;;
55758;SDS011;41678;52.126;20.664;2023-04-26T19:28:11;15.70;;;5.20;;
55758;SDS011;41678;52.126;20.664;2023-04-26T19:33:30;14.75;;;6.57;;
55758;SDS011;41678;52.126;20.664;2023-04-26T19:44:53;16.73;;;6.85;;
55758;SDS011;41678;52.126;20.664;2023-04-26T19:50:13;19.13;;;6.38;;
55758;SDS011;41678;52.126;20.664;2023-04-26T19:55:33;16.30;;;5.85;;
55758;SDS011;41678;52.126;20.664;2023-04-26T20:06:44;17.40;;;6.05;;
55758;SDS011;41678;52.126;20.664;2023-04-26T20:12:04;24.45;;;6.43;;
55758;SDS011;41678;52.126;20.664;2023-04-26T20:37:30;22.15;;;7.03;;
55758;SDS011;41678;52.126;20.664;2023-04-26T20:42:50;25.25;;;8.93;;
55758;SDS011;41678;52.126;20.664;2023-04-26T21:19:38;24.00;;;6.25;;
55758;SDS011;41678;52.126;20.664;2023-04-26T21:24:58;18.55;;;6.35;;
55758;SDS011;41678;52.126;20.664;2023-04-26T21:30:18;17.17;;;6.28;;
55758;SDS011;41678;52.126;20.664;2023-04-26T21:35:38;15.48;;;6.20;;
55758;SDS011;41678;52.126;20.664;2023-04-26T21:40:57;14.95;;;5.53;;
55758;SDS011;41678;52.126;20.664;2023-04-26T21:46:16;13.57;;;5.82;;
55758;SDS011;41678;52.126;20.664;2023-04-26T21:51:36;15.05;;;5.53;;
55758;SDS011;41678;52.126;20.664;2023-04-26T21:56:56;16.48;;;5.40;;
55758;SDS011;41678;52.126;20.664;2023-04-26T22:02:15;20.90;;;5.40;;
55758;SDS011;41678;52.126;20.664;2023-04-26T22:07:36;19.83;;;5.80;;
55758;SDS011;41678;52.126;20.664;2023-04-26T22:12:55;22.85;;;5.90;;
55758;SDS011;41678;52.126;20.664;2023-04-26T22:18:15;13.15;;;5.25;;
55758;SDS011;41678;52.126;20.664;2023-04-26T22:23:34;11.70;;;4.85;;
55758;SDS011;41678;52.126;20.664;2023-04-26T22:28:54;14.80;;;5.05;;
55758;SDS011;41678;52.126;20.664;2023-04-26T22:34:13;15.85;;;4.85;;
55758;SDS011;41678;52.126;20.664;2023-04-26T22:39:32;23.58;;;5.40;;
55758;SDS011;41678;52.126;20.664;2023-04-26T22:44:52;20.77;;;4.60;;
55758;SDS011;41678;52.126;20.664;2023-04-26T22:50:11;12.18;;;4.00;;
55758;SDS011;41678;52.126;20.664;2023-04-26T22:55:31;17.92;;;5.60;;
55758;SDS011;41678;52.126;20.664;2023-04-26T23:00:51;17.13;;;4.65;;
55758;SDS011;41678;52.126;20.664;2023-04-26T23:06:10;16.73;;;5.05;;
55758;SDS011;41678;52.126;20.664;2023-04-26T23:11:30;12.20;;;4.10;;
55758;SDS011;41678;52.126;20.664;2023-04-26T23:16:49;15.88;;;5.22;;
55758;SDS011;41678;52.126;20.664;2023-04-26T23:22:10;19.83;;;5.35;;
55758;SDS011;41678;52.126;20.664;2023-04-26T23:27:29;11.93;;;4.38;;
55758;SDS011;41678;52.126;20.664;2023-04-26T23:32:49;12.25;;;4.85;;
55758;SDS011;41678;52.126;20.664;2023-04-26T23:38:09;16.63;;;5.28;;
55758;SDS011;41678;52.126;20.664;2023-04-26T23:43:28;14.45;;;4.72;;
55758;SDS011;41678;52.126;20.664;2023-04-26T23:48:48;12.23;;;5.65;;
55758;SDS011;41678;52.126;20.664;2023-04-26T23:54:07;14.32;;;5.13;;
55758;SDS011;41678;52.126;20.664;2023-04-26T23:59:27;14.98;;;4.80;;
